Time;durP1;ratioP1;P1;durP2;ratioP2;P2;SDS_P1;SDS_P2;PMS_P1;PMS_P2;Temp;Humidity;BMP_temperature;BMP_pressure;BME280_temperature;BME280_humidity;BME280_pressure;Samples;Min_cycle;Max_cycle;Signal;HPM_P1;HPM_P2
2022/09/11 00:01:30;;;;;;;10.95;7.47;;;;;;;13.22;100.00;99943.44;5111278;28;20388;-78
2022/09/11 00:03:55;;;;;;;7.53;6.50;;;;;;;13.25;100.00;99942.38;5111323;28;20032;-78
2022/09/11 00:06:22;;;;;;;9.00;6.72;;;;;;;13.27;100.00;99936.91;5096283;28;20016;-79
2022/09/11 00:08:52;;;;;;;10.82;7.32;;;;;;;13.30;100.00;99942.38;5112246;28;20515;-78
2022/09/11 00:11:19;;;;;;;8.85;6.82;;;;;;;13.31;100.00;99935.34;5112253;28;20031;-77
2022/09/11 00:13:49;;;;;;;7.30;6.50;;;;;;;13.36;100.00;99934.56;5112365;28;20023;-78
2022/09/11 00:16:26;;;;;;;9.85;6.95;;;;;;;13.41;100.00;99938.75;5095179;28;20023;-77
2022/09/11 00:18:53;;;;;;;8.10;6.38;;;;;;;13.39;100.00;99942.13;5112404;28;20076;-78
2022/09/11 00:21:19;;;;;;;8.50;7.03;;;;;;;13.35;100.00;99935.06;5111340;28;20080;-78
2022/09/11 00:23:46;;;;;;;9.68;6.43;;;;;;;13.29;100.00;99932.22;5110486;28;20077;-79
2022/09/11 00:26:12;;;;;;;7.20;5.97;;;;;;;13.30;100.00;99939.50;5112790;28;20047;-77
2022/09/11 00:28:37;;;;;;;7.95;5.78;;;;;;;13.30;100.00;99939.50;5114185;28;20030;-77
2022/09/11 00:31:11;;;;;;;8.32;6.25;;;;;;;13.25;100.00;99940.28;5115486;28;20052;-77
2022/09/11 00:33:37;;;;;;;6.55;5.70;;;;;;;13.27;100.00;99943.44;5097244;28;20032;-77
2022/09/11 00:36:06;;;;;;;9.23;6.55;;;;;;;13.24;100.00;99940.84;5113952;28;20036;-78
2022/09/11 00:38:34;;;;;;;10.88;6.40;;;;;;;13.27;100.00;99942.66;5115217;28;20384;-78
2022/09/11 00:41:00;;;;;;;9.43;6.85;;;;;;;13.33;100.00;99943.44;5097465;28;20023;-78
2022/09/11 00:43:27;;;;;;;10.27;6.55;;;;;;;13.32;100.00;99933.25;5113825;28;20100;-79
2022/09/11 00:46:02;;;;;;;8.43;6.35;;;;;;;13.33;100.00;99931.97;5096815;28;20069;-78
2022/09/11 00:48:30;;;;;;;8.38;6.18;;;;;;;13.39;100.00;99930.63;5096547;28;20019;-77
2022/09/11 00:50:58;;;;;;;7.45;6.55;;;;;;;13.38;100.00;99934.84;5096622;28;20023;-77
2022/09/11 00:53:25;;;;;;;7.90;6.32;;;;;;;13.45;100.00;99937.16;5113606;28;20051;-77
2022/09/11 00:55:55;;;;;;;11.45;6.78;;;;;;;13.49;100.00;99934.06;5114674;28;20108;-77
2022/09/11 00:58:24;;;;;;;7.05;6.35;;;;;;;13.52;100.00;99928.09;5117080;28;20078;-77
2022/09/11 01:00:51;;;;;;;8.93;7.13;;;;;;;13.55;100.00;99934.84;5115684;28;20376;-77
2022/09/11 01:03:17;;;;;;;10.02;7.18;;;;;;;13.55;100.00;99926.25;5115870;28;20019;-77
2022/09/11 01:05:43;;;;;;;8.57;7.32;;;;;;;13.59;100.00;99937.47;5117229;28;20026;-76
2022/09/11 01:08:09;;;;;;;9.80;6.40;;;;;;;13.60;100.00;99933.28;5115629;28;20095;-78
2022/09/11 01:10:55;;;;;;;10.85;7.03;;;;;;;13.60;100.00;99934.06;5116953;28;20081;-80
2022/09/11 01:13:35;;;;;;;13.20;6.82;;;;;;;13.59;100.00;99926.00;5064478;28;20383;-78
2022/09/11 01:16:09;;;;;;;14.32;6.72;;;;;;;13.58;100.00;99935.91;5115236;28;20020;-77
2022/09/11 01:18:37;;;;;;;10.07;7.05;;;;;;;13.53;100.00;99926.78;5116521;28;20476;-77
2022/09/11 01:21:32;;;;;;;13.90;7.50;;;;;;;13.50;100.00;99932.72;5116667;28;20023;-77
2022/09/11 01:24:16;;;;;;;7.85;7.05;;;;;;;13.44;100.00;99932.72;5081372;28;20063;-78
2022/09/11 01:27:14;;;;;;;10.32;7.25;;;;;;;13.47;100.00;99925.19;5076025;28;20106;-79
2022/09/11 01:29:51;;;;;;;11.80;7.05;;;;;;;13.51;100.00;99932.25;5074657;28;20036;-79
2022/09/11 01:32:21;;;;;;;11.25;7.35;;;;;;;13.47;100.00;99923.09;5074509;28;20020;-77
2022/09/11 01:34:59;;;;;;;10.57;6.97;;;;;;;13.51;100.00;99926.50;5074795;28;20028;-78
2022/09/11 01:37:42;;;;;;;10.63;6.80;;;;;;;13.55;100.00;99926.25;5073745;28;20071;-77
2022/09/11 01:40:17;;;;;;;10.02;7.43;;;;;;;13.60;100.00;99927.53;5074349;28;20063;-77
2022/09/11 01:42:45;;;;;;;12.57;7.47;;;;;;;13.60;100.00;99922.56;5074309;28;20024;-77
2022/09/11 01:45:13;;;;;;;9.15;7.45;;;;;;;13.62;100.00;99922.06;5057492;28;20027;-76
2022/09/11 01:47:41;;;;;;;9.35;6.68;;;;;;;13.65;100.00;99923.88;5057696;28;20043;-76
2022/09/11 01:50:09;;;;;;;11.43;7.80;;;;;;;13.67;100.00;99924.16;5074165;28;20024;-77
2022/09/11 01:52:52;;;;;;;12.13;7.15;;;;;;;13.69;100.00;99924.41;5074228;28;20056;-78
2022/09/11 01:55:22;;;;;;;10.10;7.72;;;;;;;13.65;100.00;99915.25;5057384;28;20479;-76
2022/09/11 01:57:55;;;;;;;9.00;7.22;;;;;;;13.72;100.00;99918.41;5057309;28;20028;-76
2022/09/11 02:00:20;;;;;;;8.75;6.93;;;;;;;13.70;100.00;99926.75;5091174;28;20107;-76
2022/09/11 02:02:51;;;;;;;12.55;7.35;;;;;;;13.72;100.00;99927.00;5073844;28;20505;-76
2022/09/11 02:05:24;;;;;;;14.85;7.53;;;;;;;13.72;100.00;99927.00;5076051;28;20028;-77
2022/09/11 02:08:03;;;;;;;9.80;7.25;;;;;;;13.73;100.00;99925.72;5074201;28;20095;-77
2022/09/11 02:10:33;;;;;;;11.70;8.45;;;;;;;13.72;100.00;99929.88;5057121;28;20477;-77
2022/09/11 02:13:13;;;;;;;9.07;7.22;;;;;;;13.71;100.00;99925.44;5074023;28;20025;-77
2022/09/11 02:15:43;;;;;;;9.98;7.30;;;;;;;13.74;100.00;99929.38;5073550;28;20607;-77
2022/09/11 02:18:19;;;;;;;8.95;7.60;;;;;;;13.71;100.00;99924.66;5072144;28;20509;-77
2022/09/11 02:20:46;;;;;;;9.98;7.43;;;;;;;13.69;100.00;99922.31;5072738;28;20220;-77
2022/09/11 02:23:12;;;;;;;10.68;7.70;;;;;;;13.65;100.00;99915.25;5072843;28;20166;-77
2022/09/11 02:25:38;;;;;;;12.48;8.02;;;;;;;13.69;100.00;99924.41;5096867;28;20070;-75
2022/09/11 02:28:04;;;;;;;12.77;8.68;;;;;;;13.71;100.00;99921.78;5111931;28;20034;-76
2022/09/11 02:30:30;;;;;;;12.00;7.53;;;;;;;13.70;100.00;99917.34;5111814;28;20019;-76
2022/09/11 02:32:55;;;;;;;9.00;7.47;;;;;;;13.59;100.00;99921.00;5095497;28;20031;-77
2022/09/11 02:35:23;;;;;;;11.07;8.15;;;;;;;13.58;100.00;99907.19;5097206;28;20027;-76
2022/09/11 02:37:57;;;;;;;11.88;8.23;;;;;;;13.56;100.00;99904.84;5096175;28;20127;-76
2022/09/11 02:40:36;;;;;;;13.73;7.85;;;;;;;13.58;100.00;99915.81;5111873;28;20028;-77
2022/09/11 02:43:17;;;;;;;14.05;8.80;;;;;;;13.55;100.00;99909.00;5111807;28;20120;-77
2022/09/11 02:46:04;;;;;;;11.00;8.67;;;;;;;13.54;100.00;99911.09;5112316;28;20104;-78
2022/09/11 02:49:09;;;;;;;11.75;8.90;;;;;;;13.52;100.00;99910.06;5111902;28;20027;-77
2022/09/11 02:52:04;;;;;;;17.75;8.88;;;;;;;13.50;100.00;99916.28;5107377;28;20043;-78
2022/09/11 02:54:54;;;;;;;11.32;7.68;;;;;;;13.42;100.00;99921.00;5113842;28;20019;-77
2022/09/11 02:57:24;;;;;;;14.27;8.32;;;;;;;13.41;100.00;99913.69;5114852;28;20037;-77
2022/09/11 02:59:56;;;;;;;13.82;8.52;;;;;;;13.39;100.00;99916.28;5096506;28;20046;-77
2022/09/11 03:02:22;;;;;;;;;;;;;;;13.36;100.00;99916.56;5114030;28;20468;-76
2022/09/11 03:04:47;;;;;;;11.00;8.75;;;;;;;13.33;100.00;99909.00;5113457;28;19911;-77
2022/09/11 03:07:12;;;;;;;15.75;9.10;;;;;;;13.32;100.00;99904.56;5113476;28;20050;-77
2022/09/11 03:09:38;;;;;;;12.38;8.75;;;;;;;13.24;100.00;99904.31;5113528;28;20039;-77
2022/09/11 03:12:04;;;;;;;11.38;8.98;;;;;;;13.22;100.00;99914.72;5114386;28;20030;-76
2022/09/11 03:14:30;;;;;;;10.20;8.63;;;;;;;13.14;100.00;99914.47;5114674;28;20028;-76
2022/09/11 03:16:55;;;;;;;12.55;9.18;;;;;;;13.14;100.00;99918.09;5096172;28;20030;-76
2022/09/11 03:19:21;;;;;;;12.95;9.48;;;;;;;13.14;100.00;99920.22;5113195;28;20418;-76
2022/09/11 03:21:46;;;;;;;14.23;9.38;;;;;;;13.11;100.00;99926.97;5113144;28;20039;-77
2022/09/11 03:24:12;;;;;;;14.82;9.65;;;;;;;13.11;100.00;99924.13;5112921;28;20032;-76
2022/09/11 03:26:37;;;;;;;15.77;9.63;;;;;;;13.09;100.00;99926.75;5113051;28;20049;-76
2022/09/11 03:29:03;;;;;;;14.10;8.68;;;;;;;13.17;100.00;99924.91;5114140;27;20067;-77
2022/09/11 03:31:29;;;;;;;13.98;8.50;;;;;;;13.20;100.00;99931.69;5113001;28;20046;-77
2022/09/11 03:33:54;;;;;;;17.30;9.48;;;;;;;13.21;100.00;99925.44;5096006;28;20511;-76
2022/09/11 03:36:20;;;;;;;9.40;8.13;;;;;;;13.24;100.00;99935.88;5114252;28;20460;-77
2022/09/11 03:38:46;;;;;;;9.68;7.57;;;;;;;13.25;100.00;99942.38;5113026;28;20034;-77
2022/09/11 03:41:12;;;;;;;11.73;7.57;;;;;;;13.24;100.00;99944.50;5095856;28;20020;-77
2022/09/11 03:43:38;;;;;;;10.65;6.50;;;;;;;13.29;100.00;99943.72;5095731;28;20042;-77
2022/09/11 03:46:03;;;;;;;9.10;7.25;;;;;;;13.36;100.00;99948.91;5114142;28;20460;-77
2022/09/11 03:48:28;;;;;;;8.13;6.65;;;;;;;13.35;100.00;99958.03;5112763;28;20012;-77
2022/09/11 03:50:54;;;;;;;8.20;6.55;;;;;;;13.38;100.00;99951.28;5112886;28;20024;-77
2022/09/11 03:53:19;;;;;;;9.48;6.60;;;;;;;13.35;100.00;99961.69;5114223;28;20042;-77
2022/09/11 03:55:45;;;;;;;7.90;5.90;;;;;;;13.35;100.00;99953.09;5095663;28;20031;-77
2022/09/11 03:58:11;;;;;;;7.15;6.45;;;;;;;13.37;100.00;99959.09;5095689;28;20091;-78
2022/09/11 04:00:42;;;;;;;8.15;6.30;;;;;;;13.37;100.00;99966.94;5114506;28;20533;-77
2022/09/11 04:03:09;;;;;;;10.20;6.90;;;;;;;13.32;100.00;99961.97;5102801;28;20054;-77
2022/09/11 04:05:35;;;;;;;8.95;6.80;;;;;;;13.30;100.00;99967.44;5120813;27;20433;-77
2022/09/11 04:08:01;;;;;;;7.70;6.40;;;;;;;13.29;100.00;99963.81;5102506;28;20092;-77
2022/09/11 04:10:27;;;;;;;10.57;6.30;;;;;;;13.27;100.00;99959.88;5120819;27;20460;-78
2022/09/11 04:12:52;;;;;;;11.27;7.05;;;;;;;13.27;100.00;99969.25;5121385;27;20030;-77
2022/09/11 04:15:17;;;;;;;10.73;6.45;;;;;;;13.24;100.00;99958.84;5120589;28;20039;-77
2022/09/11 04:17:43;;;;;;;8.18;7.38;;;;;;;13.26;100.00;99961.16;5120532;27;20028;-77
2022/09/11 04:20:08;;;;;;;10.55;6.57;;;;;;;13.25;100.00;99966.13;5120494;27;20483;-76
2022/09/11 04:22:34;;;;;;;10.73;7.32;;;;;;;13.25;100.00;99963.25;5119299;28;20388;-76
2022/09/11 04:25:00;;;;;;;8.45;6.97;;;;;;;13.20;100.00;99961.16;5119109;28;20046;-77
2022/09/11 04:27:26;;;;;;;11.10;7.57;;;;;;;13.17;100.00;99962.22;5119072;28;20502;-77
2022/09/11 04:29:52;;;;;;;8.10;6.80;;;;;;;13.18;100.00;99960.91;5102208;28;20027;-78
2022/09/11 04:32:17;;;;;;;10.43;7.03;;;;;;;13.25;100.00;99962.47;5119559;28;20023;-77
2022/09/11 04:34:42;;;;;;;8.20;6.70;;;;;;;13.30;100.00;99961.69;5119103;28;20463;-77
2022/09/11 04:37:08;;;;;;;12.23;6.97;;;;;;;13.36;100.00;99966.13;5102173;28;20118;-77
2022/09/11 04:39:34;;;;;;;10.27;6.05;;;;;;;13.36;100.00;99959.63;5119003;28;20023;-77
2022/09/11 04:42:00;;;;;;;8.27;6.40;;;;;;;13.35;100.00;99967.44;5101988;28;20066;-76
2022/09/11 04:44:27;;;;;;;11.15;6.28;;;;;;;13.33;100.00;99966.41;5120185;28;20031;-76
2022/09/11 04:46:52;;;;;;;6.88;5.47;;;;;;;13.37;100.00;99961.97;5101848;28;20032;-75
2022/09/11 04:49:18;;;;;;;6.68;5.30;;;;;;;13.33;100.00;99964.31;5119808;27;20432;-76
2022/09/11 04:51:45;;;;;;;6.45;4.97;;;;;;;13.33;100.00;99970.06;5118853;28;20028;-77
2022/09/11 04:54:23;;;;;;;5.55;4.78;;;;;;;13.36;100.00;99971.09;5120091;28;20075;-76
2022/09/11 04:56:49;;;;;;;8.05;4.57;;;;;;;13.42;100.00;99966.94;5119938;27;20107;-75
2022/09/11 04:59:21;;;;;;;4.22;3.83;;;;;;;13.48;100.00;99972.69;5101865;28;20036;-75
2022/09/11 05:01:47;;;;;;;6.00;3.90;;;;;;;13.49;100.00;99968.50;5085101;28;20483;-76
2022/09/11 05:04:14;;;;;;;6.53;3.67;;;;;;;13.46;100.00;99973.19;5119245;28;20036;-77
2022/09/11 05:06:49;;;;;;;4.28;3.25;;;;;;;13.52;100.00;99982.63;5102085;28;20038;-76
2022/09/11 05:09:16;;;;;;;4.78;3.55;;;;;;;13.54;100.00;99971.38;5102145;28;20026;-77
2022/09/11 05:11:41;;;;;;;4.68;3.55;;;;;;;13.55;100.00;99969.31;5119944;27;20059;-76
2022/09/11 05:14:07;;;;;;;3.50;3.20;;;;;;;13.51;100.00;99969.56;5097677;28;20058;-76
2022/09/11 05:16:34;;;;;;;3.78;3.42;;;;;;;13.57;100.00;99978.19;5115530;28;20036;-77
2022/09/11 05:19:03;;;;;;;6.03;3.47;;;;;;;13.50;100.00;99972.91;5098550;28;20118;-77
2022/09/11 05:21:30;;;;;;;5.65;3.50;;;;;;;13.58;100.00;99976.09;5115387;28;20104;-76
2022/09/11 05:23:57;;;;;;;6.30;4.18;;;;;;;13.66;100.00;99982.88;5081615;28;20502;-76
2022/09/11 05:26:36;;;;;;;5.55;4.05;;;;;;;13.75;100.00;99991.22;5098446;28;20455;-76
2022/09/11 05:29:07;;;;;;;6.15;3.55;;;;;;;13.78;100.00;99981.56;5117119;28;20030;-84
2022/09/11 05:31:33;;;;;;;4.53;3.75;;;;;;;13.76;100.00;99973.47;5115846;28;20027;-82
2022/09/11 05:34:00;;;;;;;4.93;4.30;;;;;;;13.88;100.00;99975.03;5098179;28;20404;-84
2022/09/11 05:36:27;;;;;;;4.28;3.78;;;;;;;13.87;100.00;99982.09;5098231;28;20213;-82
2022/09/11 05:38:53;;;;;;;4.05;3.65;;;;;;;13.88;100.00;99980.00;5081340;28;20059;-82
2022/09/11 05:41:19;;;;;;;6.00;3.60;;;;;;;13.90;100.00;99983.13;5115881;28;20369;-82
2022/09/11 05:43:45;;;;;;;5.88;3.78;;;;;;;13.97;100.00;99988.34;5115500;28;20438;-82
2022/09/11 05:46:13;;;;;;;6.22;4.28;;;;;;;13.95;100.00;99988.06;5116286;27;20023;-77
2022/09/11 05:48:47;;;;;;;7.15;4.32;;;;;;;14.10;100.00;99982.81;5098710;28;20058;-83
2022/09/11 05:51:19;;;;;;;5.28;3.97;;;;;;;14.20;100.00;99992.72;5097843;28;20027;-83
2022/09/11 05:53:46;;;;;;;4.45;3.83;;;;;;;14.32;100.00;100002.13;5114726;28;20028;-81
2022/09/11 05:56:18;;;;;;;5.75;3.75;;;;;;;14.48;100.00;100000.50;5097715;28;20035;-80
2022/09/11 05:58:46;;;;;;;6.28;4.20;;;;;;;14.64;100.00;99997.59;5097790;28;20035;-82
2022/09/11 06:01:22;;;;;;;6.25;4.60;;;;;;;14.78;100.00;100007.97;5081037;28;20035;-81
2022/09/11 06:03:49;;;;;;;8.45;4.28;;;;;;;14.77;100.00;100015.03;5114905;28;20023;-81
2022/09/11 06:06:16;;;;;;;5.18;4.47;;;;;;;14.94;100.00;100011.31;5097680;28;20032;-79
2022/09/11 06:08:45;;;;;;;6.10;4.45;;;;;;;14.92;100.00;100011.88;5114717;28;20085;-81
2022/09/11 06:11:13;;;;;;;6.30;4.32;;;;;;;15.06;100.00;100013.63;5097533;28;20031;-81
2022/09/11 06:13:41;;;;;;;8.48;4.80;;;;;;;15.04;100.00;100010.47;5097712;28;20055;-87
2022/09/11 06:16:17;;;;;;;5.20;4.45;;;;;;;15.15;100.00;100021.94;5097924;28;20097;-86
2022/09/11 06:18:43;;;;;;;7.32;5.20;;;;;;;14.95;100.00;100030.16;5115011;28;20084;-86
2022/09/11 06:21:18;;;;;;;7.45;5.88;;;;;;;15.14;100.00;100031.88;5114389;28;20506;-91
2022/09/11 06:23:43;;;;;;;8.25;5.90;;;;;;;15.18;100.00;100029.50;5081893;28;20040;-83
2022/09/11 06:26:11;;;;;;;11.13;7.07;;;;;;;15.29;100.00;100034.41;5073185;28;20121;-87
2022/09/11 06:28:38;;;;;;;8.63;6.47;;;;;;;15.39;100.00;100034.88;5057710;28;20373;-84
2022/09/11 06:31:17;;;;;;;7.45;6.70;;;;;;;15.33;100.00;100037.00;5057590;28;20567;-85
2022/09/11 06:33:44;;;;;;;9.82;6.85;;;;;;;15.45;100.00;100036.41;5056997;28;20089;-84
2022/09/11 06:36:14;;;;;;;7.90;6.57;;;;;;;15.47;100.00;100038.75;5057222;28;20090;-86
2022/09/11 06:38:40;;;;;;;9.32;7.00;;;;;;;15.51;100.00;100042.94;5074928;28;20501;-83
2022/09/11 06:41:15;;;;;;;11.82;6.97;;;;;;;15.51;100.00;100034.28;5056978;28;20035;-82
2022/09/11 06:43:42;;;;;;;11.93;7.70;;;;;;;15.37;100.00;100046.91;5078974;28;20032;-77
2022/09/11 06:46:26;;;;;;;11.73;7.15;;;;;;;15.24;100.00;100041.78;5092580;28;20036;-77
2022/09/11 06:48:52;;;;;;;10.23;7.85;;;;;;;15.24;100.00;100044.66;5096020;28;20039;-79
2022/09/11 06:51:20;;;;;;;11.93;7.95;;;;;;;15.17;100.00;100042.31;5095095;28;20039;-80
2022/09/11 06:53:46;;;;;;;9.00;7.53;;;;;;;15.14;100.00;100046.28;5079102;28;20059;-80
2022/09/11 06:56:14;;;;;;;12.43;8.60;;;;;;;15.14;100.00;100051.25;5076632;28;20028;-79
2022/09/11 06:58:40;;;;;;;12.15;8.60;;;;;;;15.13;100.00;100056.22;5076809;28;20086;-82
2022/09/11 07:01:14;;;;;;;12.32;8.32;;;;;;;15.09;100.00;100055.72;5093087;28;20027;-82
2022/09/11 07:03:49;;;;;;;12.15;8.15;;;;;;;15.13;100.00;100059.09;5093152;28;20030;-81
2022/09/11 07:06:18;;;;;;;10.70;8.30;;;;;;;15.22;100.00;100058.78;5076559;28;20366;-80
2022/09/11 07:08:51;;;;;;;10.88;8.40;;;;;;;15.37;100.00;100063.41;5076220;28;20446;-81
2022/09/11 07:11:17;;;;;;;12.20;8.13;;;;;;;15.45;100.00;100062.34;5060177;28;20096;-83
2022/09/11 07:13:46;;;;;;;10.85;8.02;;;;;;;15.50;100.00;100069.38;5092919;28;20032;-83
2022/09/11 07:16:13;;;;;;;12.65;8.52;;;;;;;15.46;100.00;100063.91;5060381;28;20485;-82
2022/09/11 07:18:41;;;;;;;13.18;8.18;;;;;;;15.45;100.00;100058.66;5077298;28;20122;-83
2022/09/11 07:21:10;;;;;;;11.02;8.50;;;;;;;15.34;100.00;100056.63;5062776;28;20031;-81
2022/09/11 07:23:36;;;;;;;8.50;7.55;;;;;;;15.35;100.00;100066.06;5093434;28;20024;-79
2022/09/11 07:26:06;;;;;;;8.60;7.32;;;;;;;15.49;100.00;100056.28;5109971;28;20082;-77
2022/09/11 07:28:32;;;;;;;9.45;7.68;;;;;;;15.55;100.00;100057.03;5096709;28;20035;-77
2022/09/11 07:31:15;;;;;;;10.68;7.97;;;;;;;15.66;100.00;100057.00;5079338;28;20188;-79
2022/09/11 07:33:49;;;;;;;11.75;8.30;;;;;;;15.83;100.00;100051.09;5079540;28;20023;-79
2022/09/11 07:36:18;;;;;;;12.13;8.40;;;;;;;16.01;100.00;100053.28;5064650;28;20031;-78
2022/09/11 07:38:57;;;;;;;8.75;6.78;;;;;;;16.13;100.00;100052.66;5097669;28;20459;-79
2022/09/11 07:41:31;;;;;;;9.02;6.57;;;;;;;16.34;100.00;100055.88;5098879;28;20031;-73
2022/09/11 07:43:59;;;;;;;9.38;6.95;;;;;;;16.69;100.00;100055.00;5095842;28;20433;-72
2022/09/11 07:46:25;;;;;;;7.75;6.35;;;;;;;16.76;100.00;100050.72;5078818;28;20126;-73
2022/09/11 07:48:51;;;;;;;9.68;6.90;;;;;;;16.94;100.00;100052.88;5079126;28;20030;-74
2022/09/11 07:51:18;;;;;;;12.27;6.85;;;;;;;17.23;100.00;100057.75;5095617;28;20024;-75
2022/09/11 07:53:49;;;;;;;7.47;6.20;;;;;;;17.38;100.00;100058.06;5095544;28;20115;-75
2022/09/11 07:56:19;;;;;;;9.18;6.68;;;;;;;17.51;100.00;100051.59;5113639;28;20023;-75
2022/09/11 07:58:46;;;;;;;6.45;5.85;;;;;;;17.85;100.00;100057.63;5078607;28;20088;-74
2022/09/11 08:01:17;;;;;;;7.50;5.18;;;;;;;18.35;100.00;100056.81;5078439;28;20027;-75
2022/09/11 08:03:43;;;;;;;7.13;5.82;;;;;;;18.68;100.00;100059.06;5078490;28;20106;-75
2022/09/11 08:06:12;;;;;;;5.88;4.95;;;;;;;18.84;100.00;100073.78;5078714;28;20036;-74
2022/09/11 08:08:39;;;;;;;5.63;5.13;;;;;;;18.85;100.00;100064.53;5095806;28;20387;-75
2022/09/11 08:11:10;;;;;;;7.47;5.00;;;;;;;18.65;100.00;100077.56;5078645;28;20118;-74
2022/09/11 08:13:35;;;;;;;7.82;5.07;;;;;;;18.78;100.00;100081.78;5095765;28;20032;-75
2022/09/11 08:16:02;;;;;;;7.07;5.43;;;;;;;18.97;100.00;100076.66;5078586;28;20472;-74
2022/09/11 08:18:29;;;;;;;6.35;4.80;;;;;;;18.88;100.00;100089.47;5113561;28;20020;-74
2022/09/11 08:21:17;;;;;;;6.28;4.38;;;;;;;18.77;100.00;100089.69;5078799;28;20455;-75
2022/09/11 08:23:44;;;;;;;4.93;4.43;;;;;;;18.95;100.00;100082.25;5078575;28;20484;-74
2022/09/11 08:26:13;;;;;;;5.03;4.53;;;;;;;19.08;100.00;100090.91;5091832;28;20147;-74
2022/09/11 08:28:41;;;;;;;5.18;4.60;;;;;;;19.17;100.00;100092.59;5075177;28;20111;-75
2022/09/11 08:31:13;;;;;;;5.70;4.60;;;;;;;19.14;100.00;100090.84;5076424;28;20074;-74
2022/09/11 08:33:48;;;;;;;6.75;4.30;;;;;;;19.27;100.00;100099.50;5092056;28;20039;-75
2022/09/11 08:36:14;;;;;;;5.72;4.43;;;;;;;19.37;100.00;100100.59;5092051;28;20060;-73
2022/09/11 08:38:42;;;;;;;6.20;4.22;;;;;;;19.34;100.00;100104.63;5093380;28;20385;-74
2022/09/11 08:41:30;;;;;;;4.60;4.13;;;;;;;19.64;100.00;100095.53;5075302;28;20093;-73
2022/09/11 08:44:05;;;;;;;4.88;4.25;;;;;;;19.71;100.00;100094.88;5091912;28;20070;-75
2022/09/11 08:47:05;;;;;;;6.22;4.25;;;;;;;20.50;100.00;100089.47;5091943;28;20056;-74
2022/09/11 08:49:42;;;;;;;4.93;4.43;;;;;;;20.83;100.00;100093.63;5095247;28;20024;-73
2022/09/11 08:52:11;;;;;;;6.38;4.30;;;;;;;20.61;100.00;100092.06;5097086;28;20024;-74
2022/09/11 08:54:47;;;;;;;4.50;3.80;;;;;;;20.32;100.00;100099.97;5095683;28;20039;-75
2022/09/11 08:57:30;;;;;;;4.25;3.90;;;;;;;20.03;100.00;100098.31;5078452;28;20077;-73
2022/09/11 09:00:02;;;;;;;4.18;3.65;;;;;;;19.61;100.00;100099.56;5096290;28;20027;-72
2022/09/11 09:02:45;;;;;;;6.18;3.83;;;;;;;19.32;100.00;100099.38;5096763;28;20032;-72
2022/09/11 09:05:38;;;;;;;5.07;3.63;;;;;;;19.11;100.00;100096.41;5095912;28;20465;-74
2022/09/11 09:08:19;;;;;;;5.00;4.22;;;;;;;18.71;100.00;100106.41;5094279;28;20073;-75
2022/09/11 09:13:32;;;;;;;4.38;3.95;;;;;;;18.43;100.00;100111.91;5094628;23;20052;-80
2022/09/11 09:16:16;;;;;;;6.18;4.20;;;;;;;18.40;100.00;100115.91;5076310;28;20024;-79
2022/09/11 09:18:54;;;;;;;4.70;3.65;;;;;;;18.51;100.00;100104.13;5096335;28;20108;-78
2022/09/11 09:21:34;;;;;;;6.15;4.00;;;;;;;18.83;100.00;100113.53;5092757;28;20028;-79
2022/09/11 09:24:04;;;;;;;5.28;4.78;;;;;;;19.20;100.00;100117.56;5079232;28;20024;-79
2022/09/11 09:26:37;;;;;;;6.68;4.57;;;;;;;19.61;100.00;100111.16;5061383;28;20035;-80
2022/09/11 09:29:07;;;;;;;5.90;3.95;;;;;;;20.12;100.00;100114.47;5079321;28;20506;-79
2022/09/11 09:31:37;;;;;;;4.60;4.18;;;;;;;20.33;100.00;100103.66;5071529;28;20271;-80
2022/09/11 09:34:33;;;;;;;5.45;4.90;;;;;;;19.99;100.00;100109.50;5083715;28;20041;-80
2022/09/11 09:37:06;;;;;;;6.55;4.78;;;;;;;19.48;100.00;100109.84;5062644;28;20039;-81
2022/09/11 09:39:34;;;;;;;5.75;4.55;;;;;;;19.56;100.00;100109.94;5066641;28;20036;-78
2022/09/11 09:42:31;;;;;;;6.03;4.78;;;;;;;19.64;100.00;100110.81;5036134;28;20039;-78
2022/09/11 09:45:30;;;;;;;5.25;4.63;;;;;;;19.37;100.00;100118.00;5083999;28;20047;-79
2022/09/11 09:47:57;;;;;;;5.88;4.72;;;;;;;19.57;100.00;100116.50;5075453;28;20038;-78
2022/09/11 09:50:32;;;;;;;6.13;5.35;;;;;;;19.67;100.00;100121.28;5067777;28;20032;-76
2022/09/11 09:53:28;;;;;;;5.20;4.70;;;;;;;19.84;100.00;100118.00;5064239;28;20037;-75
2022/09/11 09:55:55;;;;;;;6.05;5.10;;;;;;;19.67;100.00;100118.38;5053358;28;20069;-77
2022/09/11 09:58:28;;;;;;;5.53;5.03;;;;;;;19.57;100.00;100116.50;5042879;28;20112;-77
2022/09/11 10:00:58;;;;;;;6.30;5.25;;;;;;;19.35;100.00;100109.88;5127017;22;20053;-77
2022/09/11 10:03:32;;;;;;;7.35;5.22;;;;;;;19.34;100.00;100119.91;5035327;28;20037;-79
2022/09/11 10:05:59;;;;;;;5.28;4.78;;;;;;;19.47;100.00;100113.28;5034335;28;20485;-77
2022/09/11 10:08:37;;;;;;;6.25;5.65;;;;;;;19.62;100.00;100119.28;5044511;28;20072;-78
2022/09/11 10:11:06;;;;;;;5.20;4.70;;;;;;;19.63;100.00;100114.28;5030851;28;20094;-77
2022/09/11 10:13:43;;;;;;;5.95;4.85;;;;;;;19.57;100.00;100113.59;5017035;28;20021;-76
2022/09/11 10:16:36;;;;;;;5.00;4.50;;;;;;;19.59;100.00;100117.53;5015073;28;20045;-76
2022/09/11 10:19:02;;;;;;;4.97;4.40;;;;;;;19.65;100.00;100117.41;4991776;28;20057;-76
2022/09/11 10:21:32;;;;;;;4.32;3.92;;;;;;;19.78;100.00;100123.16;4998432;28;20033;-75
2022/09/11 10:24:25;;;;;;;4.97;4.47;;;;;;;19.64;100.00;100116.63;5012074;28;20079;-75
2022/09/11 10:26:52;;;;;;;5.68;4.68;;;;;;;19.40;100.00;100123.47;5039170;28;20041;-76
2022/09/11 10:29:28;;;;;;;4.53;4.13;;;;;;;19.33;100.00;100126.25;5039074;28;20033;-75
2022/09/11 10:32:11;;;;;;;4.85;4.45;;;;;;;19.20;100.00;100115.47;5030674;28;20046;-79
2022/09/11 10:34:39;;;;;;;4.28;3.92;;;;;;;19.30;100.00;100118.69;5018928;28;20045;-76
2022/09/11 10:37:30;;;;;;;4.15;3.75;;;;;;;19.53;100.00;100114.75;5034198;28;20212;-76
2022/09/11 10:40:22;;;;;;;8.00;4.15;;;;;;;19.88;100.00;100119.22;5037842;28;20366;-74
2022/09/11 10:42:53;;;;;;;5.32;4.57;;;;;;;20.28;99.48;100116.97;5000396;28;20405;-75
2022/09/11 10:45:21;;;;;;;4.85;3.88;;;;;;;20.63;96.92;100100.22;5011345;28;20059;-78
2022/09/11 10:47:48;;;;;;;5.18;4.32;;;;;;;20.91;97.67;100100.25;5020735;28;20044;-77
2022/09/11 10:50:19;;;;;;;4.82;4.32;;;;;;;20.96;93.88;100110.16;5042590;28;20048;-76
2022/09/11 10:53:05;;;;;;;4.43;4.03;;;;;;;20.92;92.43;100109.75;5035734;28;20395;-74
2022/09/11 10:55:40;;;;;;;5.50;3.60;;;;;;;20.77;94.76;100114.13;5031739;28;20026;-74
2022/09/11 10:58:16;;;;;;;3.92;3.63;;;;;;;20.70;95.94;100116.91;5009871;28;20071;-77
2022/09/11 11:00:41;;;;;;;4.30;4.00;;;;;;;20.83;98.96;100124.81;5025324;28;20128;-76
2022/09/11 11:03:20;;;;;;;4.05;3.75;;;;;;;21.08;96.70;100117.22;5024326;28;20030;-76
2022/09/11 11:06:24;;;;;;;4.65;3.20;;;;;;;21.33;91.80;100114.66;5028028;28;20096;-77
2022/09/11 11:09:07;;;;;;;3.80;3.50;;;;;;;21.35;87.99;100115.63;5033753;28;20521;-76
2022/09/11 11:12:09;;;;;;;3.75;3.15;;;;;;;21.36;89.29;100128.03;5031833;28;20053;-78
2022/09/11 11:15:26;;;;;;;3.92;3.50;;;;;;;21.19;89.38;100135.13;5028840;28;20068;-78
2022/09/11 11:18:30;;;;;;;3.22;2.85;;;;;;;20.97;89.03;100138.66;5017290;28;20029;-79
2022/09/11 11:21:50;;;;;;;3.63;2.92;;;;;;;20.62;90.63;100136.41;5013416;28;20064;-80
2022/09/11 11:24:54;;;;;;;3.30;2.85;;;;;;;20.10;94.07;100138.25;4949613;29;20043;-78
2022/09/11 11:27:35;;;;;;;3.13;2.58;;;;;;;19.87;95.95;100140.06;4947829;29;20034;-79
2022/09/11 11:30:21;;;;;;;2.95;2.75;;;;;;;19.69;96.97;100136.00;5018601;28;20046;-78
2022/09/11 11:32:52;;;;;;;3.25;2.80;;;;;;;19.53;98.39;100142.94;5033876;28;20060;-77
2022/09/11 11:35:34;;;;;;;3.35;2.67;;;;;;;19.14;100.00;100143.75;5031049;28;20017;-76
2022/09/11 11:38:06;;;;;;;;;;;;;;;18.86;100.00;100147.19;4993498;28;20114;-77
2022/09/11 11:40:48;;;;;;;4.15;3.35;;;;;;;18.78;100.00;100140.47;5012508;28;19909;-78
2022/09/11 11:43:21;;;;;;;4.65;2.72;;;;;;;18.86;100.00;100152.97;4998614;28;20104;-77
2022/09/11 11:46:00;;;;;;;4.10;2.80;;;;;;;18.94;100.00;100150.19;5026745;28;20068;-76